createdAt,value
2017-10-25T00:00:04.272Z,22.38
2017-10-25T00:00:36.304Z,22.41
2017-10-25T00:01:08.532Z,22.36
2017-10-25T00:01:40.665Z,22.44
2017-10-25T00:02:12.758Z,22.34
2017-10-25T00:02:44.846Z,22.39
2017-10-25T00:03:17.112Z,22.41
2017-10-25T00:03:49.280Z,22.36
2017-10-25T00:04:21.349Z,22.36
2017-10-25T00:04:53.418Z,22.39
2017-10-25T00:05:25.620Z,22.34
2017-10-25T00:05:57.822Z,22.34
2017-10-25T00:06:29.891Z,22.38
2017-10-25T00:07:01.961Z,22.39
2017-10-25T00:07:34.045Z,22.34
2017-10-25T00:08:06.164Z,22.31
2017-10-25T00:08:38.385Z,22.34
2017-10-25T00:09:10.544Z,22.36
2017-10-25T00:09:42.742Z,22.36
2017-10-25T00:10:14.897Z,22.39
2017-10-25T00:10:46.951Z,22.38
2017-10-25T00:11:19.078Z,22.36
2017-10-25T00:11:51.195Z,22.33
2017-10-25T00:12:23.356Z,22.36
2017-10-25T00:12:55.567Z,22.36
2017-10-25T00:13:27.715Z,22.31
2017-10-25T00:13:59.756Z,22.36
2017-10-25T00:14:31.956Z,22.38
2017-10-25T00:15:04.337Z,22.38
2017-10-25T00:15:36.531Z,22.39
2017-10-25T00:16:08.625Z,22.39
2017-10-25T00:16:40.810Z,22.34
2017-10-25T00:17:12.892Z,22.34
2017-10-25T00:17:45.046Z,22.33
2017-10-25T00:18:17.237Z,22.34
2017-10-25T00:18:49.382Z,22.33
2017-10-25T00:19:22.294Z,22.38
2017-10-25T00:19:54.441Z,22.38
2017-10-25T00:20:26.583Z,22.31
2017-10-25T00:20:58.657Z,22.39
2017-10-25T00:21:30.734Z,22.34
2017-10-25T00:22:02.938Z,22.34
2017-10-25T00:22:35.072Z,22.36
2017-10-25T00:23:07.211Z,22.39
2017-10-25T00:23:39.256Z,22.39
2017-10-25T00:24:11.479Z,22.38
2017-10-25T00:24:43.555Z,22.38
2017-10-25T00:25:15.748Z,22.39
2017-10-25T00:25:47.947Z,22.34
2017-10-25T00:26:20.094Z,22.36
2017-10-25T00:26:52.176Z,22.36
2017-10-25T00:27:24.282Z,22.34
2017-10-25T00:27:56.613Z,22.31
2017-10-25T00:28:28.626Z,22.36
2017-10-25T00:29:00.707Z,22.33
2017-10-25T00:29:32.910Z,22.33
2017-10-25T00:30:05.105Z,22.38
2017-10-25T00:30:37.309Z,22.39
2017-10-25T00:31:09.554Z,22.34
2017-10-25T00:31:41.744Z,22.34
2017-10-25T00:32:13.931Z,22.34
2017-10-25T00:32:46.133Z,22.36
2017-10-25T00:33:18.225Z,22.34
2017-10-25T00:33:50.349Z,22.38
2017-10-25T00:34:22.492Z,22.36
2017-10-25T00:34:54.644Z,22.34
2017-10-25T00:35:26.839Z,22.31
2017-10-25T00:35:58.991Z,22.34
2017-10-25T00:36:31.069Z,22.39
2017-10-25T00:37:03.196Z,22.34
2017-10-25T00:37:35.271Z,22.33
2017-10-25T00:38:07.517Z,22.33
2017-10-25T00:38:39.765Z,22.38
2017-10-25T00:39:11.915Z,22.33
2017-10-25T00:39:44.053Z,22.38
2017-10-25T00:40:16.281Z,22.34
2017-10-25T00:40:48.548Z,22.33
2017-10-25T00:41:20.700Z,22.38
2017-10-25T00:41:52.897Z,22.34
2017-10-25T00:42:24.978Z,22.36
2017-10-25T00:42:57.174Z,22.31
2017-10-25T00:43:29.319Z,22.33
2017-10-25T00:44:01.495Z,22.31
2017-10-25T00:44:33.636Z,22.36
2017-10-25T00:45:05.747Z,22.3
2017-10-25T00:45:37.930Z,22.34
2017-10-25T00:46:10.010Z,22.33
2017-10-25T00:46:42.156Z,22.31
2017-10-25T00:47:14.366Z,22.34
2017-10-25T00:47:46.456Z,22.36
2017-10-25T00:48:18.476Z,22.36
2017-10-25T00:48:50.669Z,22.34
2017-10-25T00:49:22.801Z,22.33
2017-10-25T00:49:54.953Z,22.33
2017-10-25T00:50:27.130Z,22.38
2017-10-25T00:50:59.258Z,22.3
2017-10-25T00:51:31.447Z,22.34
2017-10-25T00:52:03.577Z,22.31
2017-10-25T00:52:35.719Z,22.34
2017-10-25T00:53:07.898Z,22.36
2017-10-25T00:53:40.095Z,22.33
2017-10-25T00:54:12.284Z,22.31
2017-10-25T00:54:44.434Z,22.38
2017-10-25T00:55:16.624Z,22.34
2017-10-25T00:55:48.757Z,22.31
2017-10-25T00:56:20.905Z,22.31
2017-10-25T00:56:53.095Z,22.31
2017-10-25T00:57:25.274Z,22.34
2017-10-25T00:57:57.412Z,22.33
2017-10-25T00:58:29.635Z,22.36
2017-10-25T00:59:01.709Z,22.33
2017-10-25T00:59:33.789Z,22.34
2017-10-25T01:00:06.089Z,22.34
2017-10-25T01:00:38.294Z,22.3
2017-10-25T01:01:10.553Z,22.31
2017-10-25T01:01:42.717Z,22.34
2017-10-25T01:02:14.808Z,22.31
2017-10-25T01:02:46.954Z,22.23
2017-10-25T01:03:19.024Z,22.34
2017-10-25T01:03:51.213Z,22.33
2017-10-25T01:04:23.452Z,22.33
2017-10-25T01:04:55.639Z,22.31
2017-10-25T01:05:27.802Z,22.31
2017-10-25T01:05:59.953Z,22.27
2017-10-25T01:06:32.095Z,22.31
2017-10-25T01:07:04.178Z,22.33
2017-10-25T01:07:36.450Z,22.38
2017-10-25T01:08:08.588Z,22.26
2017-10-25T01:08:40.780Z,22.29
2017-10-25T01:09:13.539Z,22.34
2017-10-25T01:09:45.751Z,22.3
2017-10-25T01:10:17.879Z,22.34
2017-10-25T01:10:49.980Z,22.3
2017-10-25T01:11:22.052Z,22.23
2017-10-25T01:11:54.190Z,22.29
2017-10-25T01:12:26.442Z,22.23
2017-10-25T01:12:58.512Z,22.23
2017-10-25T01:13:30.696Z,22.31
2017-10-25T01:14:03.783Z,22.36
2017-10-25T01:14:35.969Z,22.27
2017-10-25T01:15:09.048Z,22.27
2017-10-25T01:15:41.144Z,22.26
2017-10-25T01:16:13.172Z,22.27
2017-10-25T01:16:45.211Z,22.3
2017-10-25T01:17:17.407Z,22.31
2017-10-25T01:17:49.546Z,22.22
2017-10-25T01:18:21.637Z,22.22
2017-10-25T01:18:53.891Z,22.26
2017-10-25T01:19:26.096Z,22.27
2017-10-25T01:19:58.234Z,22.29
2017-10-25T01:20:30.346Z,22.26
2017-10-25T01:21:02.491Z,22.22
2017-10-25T01:21:34.562Z,22.24
2017-10-25T01:22:06.776Z,22.26
2017-10-25T01:22:38.853Z,22.29
2017-10-25T01:23:10.909Z,22.26
2017-10-25T01:23:43.047Z,22.36
2017-10-25T01:24:15.304Z,22.23
2017-10-25T01:24:47.402Z,22.27
2017-10-25T01:25:19.494Z,22.26
2017-10-25T01:25:51.633Z,22.26
2017-10-25T01:26:23.807Z,22.24
2017-10-25T01:26:55.958Z,22.3
2017-10-25T01:27:28.012Z,22.24
2017-10-25T01:28:00.157Z,22.29
2017-10-25T01:28:32.246Z,22.26
2017-10-25T01:29:04.424Z,22.31
2017-10-25T01:29:36.503Z,22.26
2017-10-25T01:30:08.629Z,22.26
2017-10-25T01:30:40.737Z,22.31
2017-10-25T01:31:12.822Z,22.29
2017-10-25T01:31:44.944Z,22.27
2017-10-25T01:32:17.079Z,22.22
2017-10-25T01:32:49.306Z,22.27
2017-10-25T01:33:21.502Z,22.29
2017-10-25T01:33:53.622Z,22.23
2017-10-25T01:34:25.838Z,22.26
2017-10-25T01:34:57.833Z,22.27
2017-10-25T01:35:29.861Z,22.31
2017-10-25T01:36:01.985Z,22.31
2017-10-25T01:36:34.066Z,22.27
2017-10-25T01:37:06.194Z,22.22
2017-10-25T01:37:38.345Z,22.23
2017-10-25T01:38:10.450Z,22.29
2017-10-25T01:38:42.638Z,22.34
2017-10-25T01:39:14.768Z,22.27
2017-10-25T01:39:46.795Z,22.16
2017-10-25T01:40:18.863Z,22.3
2017-10-25T01:40:50.948Z,22.29
2017-10-25T01:41:22.988Z,22.22
2017-10-25T01:41:55.254Z,22.18
2017-10-25T01:42:27.331Z,22.3
2017-10-25T01:42:59.426Z,22.23
2017-10-25T01:43:31.438Z,22.29
2017-10-25T01:44:03.524Z,22.33
2017-10-25T01:44:35.659Z,22.23
2017-10-25T01:45:07.972Z,22.24
2017-10-25T01:45:40.107Z,22.31
2017-10-25T01:46:12.184Z,22.18
2017-10-25T01:46:44.392Z,22.26
2017-10-25T01:47:16.477Z,22.23
2017-10-25T01:47:48.568Z,22.29
2017-10-25T01:48:20.640Z,22.22
2017-10-25T01:48:52.707Z,22.26
2017-10-25T01:49:24.945Z,22.23
2017-10-25T01:49:57.187Z,22.23
2017-10-25T01:50:29.337Z,22.26
2017-10-25T01:51:01.537Z,22.27
2017-10-25T01:51:33.616Z,22.23
2017-10-25T01:52:05.808Z,22.2
2017-10-25T01:52:38.021Z,22.29
2017-10-25T01:53:10.146Z,22.24
2017-10-25T01:53:42.240Z,22.16
2017-10-25T01:54:14.434Z,22.33
2017-10-25T01:54:46.626Z,22.29
2017-10-25T01:55:18.805Z,22.24
2017-10-25T01:55:51.012Z,22.31
2017-10-25T01:56:23.193Z,22.24
2017-10-25T01:56:55.274Z,22.22
2017-10-25T01:57:27.369Z,22.16
2017-10-25T01:57:59.563Z,22.22
2017-10-25T01:58:31.654Z,22.27
2017-10-25T01:59:03.725Z,22.3
2017-10-25T01:59:35.748Z,22.24
2017-10-25T02:00:07.867Z,22.22
2017-10-25T02:00:39.927Z,22.31
2017-10-25T02:01:11.958Z,22.26
2017-10-25T02:01:44.199Z,22.3
2017-10-25T02:02:16.267Z,22.3
2017-10-25T02:02:48.446Z,22.24
2017-10-25T02:03:20.626Z,22.23
2017-10-25T02:03:52.799Z,22.22
2017-10-25T02:04:25.018Z,22.16
2017-10-25T02:04:57.179Z,22.24
2017-10-25T02:05:29.371Z,22.3
2017-10-25T02:06:01.508Z,22.24
2017-10-25T02:06:33.651Z,22.22
2017-10-25T02:07:05.952Z,22.27
2017-10-25T02:07:38.167Z,22.27
2017-10-25T02:08:10.362Z,22.3
2017-10-25T02:08:42.528Z,22.3
2017-10-25T02:09:14.684Z,22.31
2017-10-25T02:09:46.877Z,22.31
2017-10-25T02:10:18.988Z,22.3
2017-10-25T02:10:51.147Z,22.24
2017-10-25T02:11:23.479Z,22.27
2017-10-25T02:11:55.697Z,22.29
2017-10-25T02:12:27.886Z,22.26
2017-10-25T02:12:59.992Z,22.29
2017-10-25T02:13:32.074Z,22.27
2017-10-25T02:14:04.251Z,22.23
2017-10-25T02:14:36.387Z,22.27
2017-10-25T02:15:08.447Z,22.2
2017-10-25T02:15:40.520Z,22.27
2017-10-25T02:16:12.715Z,22.27
2017-10-25T02:16:44.787Z,22.27
2017-10-25T02:17:16.943Z,22.16
2017-10-25T02:17:49.028Z,22.3
2017-10-25T02:18:21.167Z,22.24
2017-10-25T02:18:53.298Z,22.26
2017-10-25T02:19:25.395Z,22.26
2017-10-25T02:19:57.480Z,22.3
2017-10-25T02:20:29.636Z,22.23
2017-10-25T02:21:01.760Z,22.26
2017-10-25T02:21:33.988Z,22.27
2017-10-25T02:22:06.092Z,22.3
2017-10-25T02:22:38.134Z,22.27
2017-10-25T02:23:10.159Z,22.24
2017-10-25T02:23:42.192Z,22.26
2017-10-25T02:24:14.315Z,22.26
2017-10-25T02:24:46.566Z,22.2
2017-10-25T02:25:18.707Z,22.27
2017-10-25T02:25:50.849Z,22.27
2017-10-25T02:26:22.877Z,22.23
2017-10-25T02:26:55.069Z,22.29
2017-10-25T02:27:27.130Z,22.27
2017-10-25T02:27:59.282Z,22.22
2017-10-25T02:28:31.541Z,22.27
2017-10-25T02:29:03.632Z,22.27
2017-10-25T02:29:35.830Z,22.26
2017-10-25T02:30:08.077Z,22.24
2017-10-25T02:30:40.372Z,22.3
2017-10-25T02:31:12.543Z,22.2
2017-10-25T02:31:44.694Z,22.27
2017-10-25T02:32:16.785Z,22.2
2017-10-25T02:32:48.978Z,22.23
2017-10-25T02:33:21.062Z,22.22
2017-10-25T02:33:53.200Z,22.27
2017-10-25T02:34:25.334Z,22.29
2017-10-25T02:34:57.474Z,22.27
2017-10-25T02:35:29.558Z,22.27
2017-10-25T02:36:01.659Z,22.27
2017-10-25T02:36:33.745Z,22.26
2017-10-25T02:37:05.886Z,22.23
2017-10-25T02:37:37.976Z,22.24
2017-10-25T02:38:10.054Z,22.26
2017-10-25T02:38:42.182Z,22.2
2017-10-25T02:39:14.240Z,22.26
2017-10-25T02:39:46.388Z,22.26
2017-10-25T02:40:18.463Z,22.29
2017-10-25T02:40:50.662Z,22.26
2017-10-25T02:41:22.820Z,22.24
2017-10-25T02:41:55.612Z,22.29
2017-10-25T02:42:27.813Z,22.26
2017-10-25T02:42:59.830Z,22.24
2017-10-25T02:43:31.916Z,22.23
2017-10-25T02:44:04.176Z,22.27
2017-10-25T02:44:36.272Z,22.27
2017-10-25T02:45:08.457Z,22.26
2017-10-25T02:45:40.605Z,22.24
2017-10-25T02:46:12.734Z,22.26
2017-10-25T02:46:44.781Z,22.26
2017-10-25T02:47:16.845Z,22.27
2017-10-25T02:47:49.059Z,22.24
2017-10-25T02:48:21.130Z,22.29
2017-10-25T02:48:53.141Z,22.27
2017-10-25T02:49:25.283Z,22.3
2017-10-25T02:49:57.367Z,22.27
2017-10-25T02:50:29.506Z,22.31
2017-10-25T02:51:01.669Z,22.24
2017-10-25T02:51:33.811Z,22.27
2017-10-25T02:52:05.835Z,22.26
2017-10-25T02:52:37.928Z,22.27
2017-10-25T02:53:10.134Z,22.26
2017-10-25T02:53:42.268Z,22.27
2017-10-25T02:54:14.398Z,22.22
2017-10-25T02:54:46.525Z,22.29
2017-10-25T02:55:18.655Z,22.23
2017-10-25T02:55:50.970Z,22.29
2017-10-25T02:56:23.044Z,22.27
2017-10-25T02:56:55.233Z,22.24
2017-10-25T02:57:27.269Z,22.27
2017-10-25T02:57:59.465Z,22.23
2017-10-25T02:58:31.592Z,22.29
2017-10-25T02:59:03.728Z,22.23
2017-10-25T02:59:35.812Z,22.22
2017-10-25T03:00:07.977Z,22.26
2017-10-25T03:00:40.133Z,22.22
2017-10-25T03:01:12.206Z,22.23
2017-10-25T03:01:45.372Z,22.27
2017-10-25T03:02:17.614Z,22.27
2017-10-25T03:02:49.684Z,22.24
2017-10-25T03:03:21.769Z,22.29
2017-10-25T03:03:53.831Z,22.27
2017-10-25T03:04:25.962Z,22.23
2017-10-25T03:04:58.016Z,22.18
2017-10-25T03:05:30.124Z,22.23
2017-10-25T03:06:02.340Z,22.3
2017-10-25T03:06:34.541Z,22.14
2017-10-25T03:07:06.643Z,22.22
2017-10-25T03:07:38.663Z,22.23
2017-10-25T03:08:10.684Z,22.22
2017-10-25T03:08:42.753Z,22.24
2017-10-25T03:09:14.814Z,22.26
2017-10-25T03:09:46.895Z,22.2
2017-10-25T03:10:19.050Z,22.27
2017-10-25T03:10:51.142Z,22.09
2017-10-25T03:11:23.433Z,22.27
2017-10-25T03:11:55.672Z,22.22
2017-10-25T03:12:27.710Z,22.24
2017-10-25T03:12:59.846Z,22.27
2017-10-25T03:13:32.014Z,22.29
2017-10-25T03:14:04.252Z,22.2
2017-10-25T03:14:36.296Z,22.23
2017-10-25T03:15:08.395Z,22.23
2017-10-25T03:15:40.525Z,22.26
2017-10-25T03:16:12.661Z,22.23
2017-10-25T03:16:44.690Z,22.16
2017-10-25T03:17:16.882Z,22.2
2017-10-25T03:17:49.125Z,22.26
2017-10-25T03:18:21.256Z,22.09
2017-10-25T03:18:53.328Z,22.23
2017-10-25T03:19:25.410Z,22.24
2017-10-25T03:19:57.548Z,22.22
2017-10-25T03:20:29.690Z,22.26
2017-10-25T03:21:01.827Z,22.24
2017-10-25T03:21:33.953Z,22.23
2017-10-25T03:22:06.078Z,22.18
2017-10-25T03:22:38.180Z,22.18
2017-10-25T03:23:10.947Z,22.08
2017-10-25T03:23:43.082Z,22.24
2017-10-25T03:24:15.325Z,22.12
2017-10-25T03:24:47.399Z,22.18
2017-10-25T03:25:19.489Z,22.22
2017-10-25T03:25:51.633Z,22.18
2017-10-25T03:26:23.652Z,22.11
2017-10-25T03:26:55.687Z,22.2
2017-10-25T03:27:27.837Z,22.09
2017-10-25T03:28:00.064Z,22.23
2017-10-25T03:28:32.156Z,22.2
2017-10-25T03:29:04.338Z,22.2
2017-10-25T03:29:36.519Z,22.24
2017-10-25T03:30:08.734Z,22.22
2017-10-25T03:30:40.852Z,22.2
2017-10-25T03:31:13.049Z,22.09
2017-10-25T03:31:45.138Z,22.22
2017-10-25T03:32:17.209Z,22.16
2017-10-25T03:32:49.405Z,22.11
2017-10-25T03:33:21.536Z,22.14
2017-10-25T03:33:53.723Z,22.23
2017-10-25T03:34:25.967Z,22.23
2017-10-25T03:34:58.087Z,22.12
2017-10-25T03:35:30.224Z,22.15
2017-10-25T03:36:02.303Z,22.11
2017-10-25T03:36:34.441Z,22.2
2017-10-25T03:37:06.648Z,22.26
2017-10-25T03:37:38.898Z,22.15
2017-10-25T03:38:10.964Z,22.27
2017-10-25T03:38:42.979Z,22.23
2017-10-25T03:39:15.160Z,22.09
2017-10-25T03:39:47.250Z,22.11
2017-10-25T03:40:19.499Z,22.2
2017-10-25T03:40:51.646Z,22.22
2017-10-25T03:41:23.725Z,22.22
2017-10-25T03:41:55.870Z,22.09
2017-10-25T03:42:28.020Z,22.09
2017-10-25T03:43:00.267Z,22.09
2017-10-25T03:43:32.495Z,22.26
2017-10-25T03:44:04.575Z,22.09
2017-10-25T03:44:36.725Z,22.24
2017-10-25T03:45:08.743Z,22.16
2017-10-25T03:45:40.887Z,22.09
2017-10-25T03:46:13.074Z,22.2
2017-10-25T03:46:45.196Z,22.24
2017-10-25T03:47:17.324Z,22.16
2017-10-25T03:47:49.506Z,22.23
2017-10-25T03:48:21.658Z,22.24
2017-10-25T03:48:53.678Z,22.09
2017-10-25T03:49:25.805Z,22.2
2017-10-25T03:49:57.904Z,22.09
2017-10-25T03:50:30.095Z,22.2
2017-10-25T03:51:02.241Z,22.18
2017-10-25T03:51:34.430Z,22.09
2017-10-25T03:52:06.613Z,22.23
2017-10-25T03:52:38.849Z,22.09
2017-10-25T03:53:11.009Z,22.24
2017-10-25T03:53:43.198Z,22.22
2017-10-25T03:54:15.375Z,22.14
2017-10-25T03:54:47.566Z,22.2
2017-10-25T03:55:19.773Z,22.2
2017-10-25T03:55:51.823Z,22.24
2017-10-25T03:56:24.067Z,22.23
2017-10-25T03:56:56.170Z,22.2
2017-10-25T03:57:28.323Z,22.23
2017-10-25T03:58:00.523Z,22.23
2017-10-25T03:58:32.677Z,22.2
2017-10-25T03:59:04.760Z,22.22
2017-10-25T03:59:36.850Z,22.2
2017-10-25T04:00:08.878Z,22.24
2017-10-25T04:00:41.137Z,22.2
2017-10-25T04:01:13.274Z,22.24
2017-10-25T04:01:45.349Z,22.26
2017-10-25T04:02:17.384Z,22.09
2017-10-25T04:02:49.556Z,22.2
2017-10-25T04:03:21.592Z,22.2
2017-10-25T04:03:53.726Z,22.22
2017-10-25T04:04:25.792Z,22.23
2017-10-25T04:04:57.932Z,22.09
2017-10-25T04:05:30.060Z,22.24
2017-10-25T04:06:02.918Z,22.2
2017-10-25T04:06:35.063Z,22.23
2017-10-25T04:07:07.249Z,22.22
2017-10-25T04:07:39.408Z,22.2
2017-10-25T04:08:11.567Z,22.22
2017-10-25T04:08:43.674Z,22.2
2017-10-25T04:09:16.596Z,22.23
2017-10-25T04:09:48.723Z,22.23
2017-10-25T04:10:20.908Z,22.09
2017-10-25T04:10:53.043Z,22.16
2017-10-25T04:11:25.273Z,22.2
2017-10-25T04:11:57.413Z,22.2
2017-10-25T04:12:29.582Z,22.22
2017-10-25T04:13:01.709Z,22.24
2017-10-25T04:13:33.948Z,22.23
2017-10-25T04:14:06.094Z,22.14
2017-10-25T04:14:38.221Z,22.15
2017-10-25T04:15:10.362Z,22.12
2017-10-25T04:15:42.541Z,22.24
2017-10-25T04:16:14.844Z,22.2
2017-10-25T04:16:46.938Z,22.23
2017-10-25T04:17:19.070Z,22.2
2017-10-25T04:17:51.203Z,22.22
2017-10-25T04:18:23.208Z,22.11
2017-10-25T04:18:55.307Z,22.24
2017-10-25T04:19:27.452Z,22.23
2017-10-25T04:19:59.695Z,22.24
2017-10-25T04:20:31.790Z,22.27
2017-10-25T04:21:03.879Z,22.26
2017-10-25T04:21:35.908Z,22.22
2017-10-25T04:22:07.988Z,22.24
2017-10-25T04:22:40.073Z,22.23
2017-10-25T04:23:12.229Z,22.23
2017-10-25T04:23:44.351Z,22.23
2017-10-25T04:24:16.418Z,22.24
2017-10-25T04:24:48.435Z,22.27
2017-10-25T04:25:20.590Z,22.23
2017-10-25T04:25:52.791Z,22.24
2017-10-25T04:26:24.988Z,22.22
2017-10-25T04:26:57.188Z,22.24
2017-10-25T04:27:29.303Z,22.24
2017-10-25T04:28:01.428Z,22.29
2017-10-25T04:28:33.606Z,22.26
2017-10-25T04:29:05.791Z,22.29
2017-10-25T04:29:37.858Z,22.22
2017-10-25T04:30:09.868Z,22.15
2017-10-25T04:30:42.910Z,22.27
2017-10-25T04:31:15.092Z,22.27
2017-10-25T04:31:47.259Z,22.27
2017-10-25T04:32:19.437Z,22.26
2017-10-25T04:32:51.557Z,22.26
2017-10-25T04:33:23.741Z,22.3
2017-10-25T04:33:55.883Z,22.23
2017-10-25T04:34:28.043Z,22.26
2017-10-25T04:35:00.205Z,22.24
2017-10-25T04:35:32.457Z,22.27
2017-10-25T04:36:04.670Z,22.26
2017-10-25T04:36:36.699Z,22.2
2017-10-25T04:37:08.899Z,22.26
2017-10-25T04:37:41.093Z,22.27
2017-10-25T04:38:13.120Z,22.23
2017-10-25T04:38:45.307Z,22.24
2017-10-25T04:39:17.434Z,22.23
2017-10-25T04:39:49.529Z,22.2
2017-10-25T04:40:21.569Z,22.27
2017-10-25T04:40:53.690Z,22.26
2017-10-25T04:41:25.871Z,22.26
2017-10-25T04:41:57.952Z,22.23
2017-10-25T04:42:30.022Z,22.27
2017-10-25T04:43:02.229Z,22.27
2017-10-25T04:43:34.413Z,22.31
2017-10-25T04:44:06.489Z,22.27
2017-10-25T04:44:38.560Z,22.27
2017-10-25T04:45:10.655Z,22.27
2017-10-25T04:45:42.748Z,22.26
2017-10-25T04:46:14.876Z,22.31
2017-10-25T04:46:46.938Z,22.27
2017-10-25T04:47:19.047Z,22.31
2017-10-25T04:47:51.341Z,22.27
2017-10-25T04:48:23.406Z,22.29
2017-10-25T04:48:55.486Z,22.27
2017-10-25T04:49:27.562Z,22.24
2017-10-25T04:49:59.733Z,22.24
2017-10-25T04:50:31.810Z,22.27
2017-10-25T04:51:03.890Z,22.27
2017-10-25T04:51:36.003Z,22.2
2017-10-25T04:52:08.157Z,22.26
2017-10-25T04:52:40.401Z,22.3
2017-10-25T04:53:12.579Z,22.34
2017-10-25T04:53:44.768Z,22.2
2017-10-25T04:54:17.096Z,22.33
2017-10-25T04:54:49.297Z,22.26
2017-10-25T04:55:21.459Z,22.22
2017-10-25T04:55:53.642Z,22.22
2017-10-25T04:56:25.728Z,22.16
2017-10-25T04:56:57.967Z,22.29
2017-10-25T04:57:30.103Z,22.15
2017-10-25T04:58:02.202Z,22.24
2017-10-25T04:58:34.383Z,22.3
2017-10-25T04:59:06.601Z,22.27
2017-10-25T04:59:38.831Z,22.18
2017-10-25T05:00:11.043Z,22.24
2017-10-25T05:00:43.296Z,22.29
2017-10-25T05:01:15.541Z,22.29
2017-10-25T05:01:47.685Z,22.3
2017-10-25T05:02:19.872Z,22.27
2017-10-25T05:02:51.953Z,22.23
2017-10-25T05:03:24.087Z,22.22
2017-10-25T05:03:56.302Z,22.23
2017-10-25T05:04:28.436Z,22.29
2017-10-25T05:05:00.579Z,22.23
2017-10-25T05:05:32.817Z,22.18
2017-10-25T05:06:04.896Z,22.27
2017-10-25T05:06:36.983Z,22.29
2017-10-25T05:07:09.120Z,22.3
2017-10-25T05:07:41.259Z,22.23
2017-10-25T05:08:13.455Z,22.23
2017-10-25T05:08:45.575Z,22.22
2017-10-25T05:09:17.713Z,22.22
2017-10-25T05:09:49.802Z,22.24
2017-10-25T05:10:22.021Z,22.29
2017-10-25T05:10:54.116Z,22.27
2017-10-25T05:11:26.353Z,22.15
2017-10-25T05:11:58.530Z,22.24
2017-10-25T05:12:30.674Z,22.29
2017-10-25T05:13:02.762Z,22.22
2017-10-25T05:13:34.844Z,22.26
2017-10-25T05:14:07.028Z,22.23
2017-10-25T05:14:39.156Z,22.29
2017-10-25T05:15:11.228Z,22.24
2017-10-25T05:15:43.563Z,22.26
2017-10-25T05:16:15.690Z,22.29
2017-10-25T05:16:47.797Z,22.3
2017-10-25T05:17:19.884Z,22.31
2017-10-25T05:17:51.913Z,22.3
2017-10-25T05:18:23.982Z,22.22
2017-10-25T05:18:56.134Z,22.27
2017-10-25T05:19:28.292Z,22.14
2017-10-25T05:20:00.491Z,22.29
2017-10-25T05:20:32.629Z,22.23
2017-10-25T05:21:04.674Z,22.22
2017-10-25T05:21:36.787Z,22.29
2017-10-25T05:22:08.869Z,22.23
2017-10-25T05:22:40.973Z,22.29
2017-10-25T05:23:13.189Z,22.23
2017-10-25T05:23:45.328Z,22.26
2017-10-25T05:24:17.462Z,22.18
2017-10-25T05:24:49.578Z,22.3
2017-10-25T05:25:21.601Z,22.18
2017-10-25T05:25:53.740Z,22.18
2017-10-25T05:26:25.836Z,22.24
2017-10-25T05:26:57.946Z,22.16
2017-10-25T05:27:30.078Z,22.22
2017-10-25T05:28:02.279Z,22.23
2017-10-25T05:28:34.419Z,22.3
2017-10-25T05:29:06.623Z,22.22
2017-10-25T05:29:38.764Z,22.26
2017-10-25T05:30:10.908Z,22.23
2017-10-25T05:30:43.139Z,22.29
2017-10-25T05:31:15.160Z,22.23
2017-10-25T05:31:47.354Z,22.26
2017-10-25T05:32:19.667Z,22.26
2017-10-25T05:32:51.803Z,22.26
2017-10-25T05:33:23.941Z,22.26
2017-10-25T05:33:56.090Z,22.3
2017-10-25T05:34:28.366Z,22.24
2017-10-25T05:35:00.617Z,22.3
2017-10-25T05:35:32.865Z,22.31
2017-10-25T05:36:05.024Z,22.3
2017-10-25T05:36:37.141Z,22.29
2017-10-25T05:37:09.286Z,22.26
2017-10-25T05:37:41.413Z,22.31
2017-10-25T05:38:13.441Z,22.36
2017-10-25T05:38:45.620Z,22.38
2017-10-25T05:39:17.707Z,22.34
2017-10-25T05:39:49.825Z,22.33
2017-10-25T05:40:21.986Z,22.34
2017-10-25T05:40:54.166Z,22.34
2017-10-25T05:41:26.241Z,22.34
2017-10-25T05:41:58.330Z,22.36
2017-10-25T05:42:30.410Z,22.34
2017-10-25T05:43:02.529Z,22.38
2017-10-25T05:43:34.716Z,22.41
2017-10-25T05:44:06.808Z,22.41
2017-10-25T05:44:38.838Z,22.36
2017-10-25T05:45:10.952Z,22.31
2017-10-25T05:45:43.031Z,22.39
2017-10-25T05:46:15.186Z,22.41
2017-10-25T05:46:47.282Z,22.38
2017-10-25T05:47:20.060Z,22.33
2017-10-25T05:47:52.197Z,22.39
2017-10-25T05:48:24.287Z,22.38
2017-10-25T05:48:56.310Z,22.39
2017-10-25T05:49:28.398Z,22.41
2017-10-25T05:50:00.433Z,22.48
2017-10-25T05:50:32.656Z,22.39
2017-10-25T05:51:04.771Z,22.44
2017-10-25T05:51:36.906Z,22.45
2017-10-25T05:52:09.671Z,22.39
2017-10-25T05:52:41.746Z,22.46
2017-10-25T05:53:13.957Z,22.44
2017-10-25T05:53:46.103Z,22.42
2017-10-25T05:54:18.353Z,22.45
2017-10-25T05:54:50.451Z,22.49
2017-10-25T05:55:22.640Z,22.45
2017-10-25T05:55:54.951Z,22.46
2017-10-25T05:56:27.210Z,22.42
2017-10-25T05:56:59.353Z,22.45
2017-10-25T05:57:31.475Z,22.48
2017-10-25T05:58:03.675Z,22.44
2017-10-25T05:58:35.862Z,22.46
2017-10-25T05:59:08.156Z,22.44
2017-10-25T05:59:40.294Z,22.48
2017-10-25T06:00:12.450Z,22.45
2017-10-25T06:00:44.597Z,22.46
2017-10-25T06:01:17.268Z,22.51
2017-10-25T06:01:49.517Z,22.46
2017-10-25T06:02:21.517Z,22.52
2017-10-25T06:02:53.690Z,22.46
2017-10-25T06:03:25.785Z,22.52
2017-10-25T06:03:58.044Z,22.51
2017-10-25T06:04:30.248Z,22.52
2017-10-25T06:05:02.573Z,22.57
2017-10-25T06:05:34.739Z,22.45
2017-10-25T06:06:06.831Z,22.54
2017-10-25T06:06:39.022Z,22.48
2017-10-25T06:07:11.071Z,22.51
2017-10-25T06:07:43.335Z,22.48
2017-10-25T06:08:16.052Z,22.51
2017-10-25T06:08:48.251Z,22.46
2017-10-25T06:09:20.322Z,22.52
2017-10-25T06:09:52.499Z,22.49
2017-10-25T06:10:24.729Z,22.46
2017-10-25T06:10:56.928Z,22.48
2017-10-25T06:11:29.088Z,22.63
2017-10-25T06:12:01.289Z,22.61
2017-10-25T06:12:33.380Z,22.6
2017-10-25T06:13:05.653Z,22.55
2017-10-25T06:13:37.732Z,22.63
2017-10-25T06:14:09.846Z,22.6
2017-10-25T06:14:41.971Z,22.55
2017-10-25T06:15:13.991Z,22.55
2017-10-25T06:15:46.200Z,22.54
2017-10-25T06:16:18.337Z,22.61
2017-10-25T06:16:50.419Z,22.55
2017-10-25T06:17:22.444Z,22.59
2017-10-25T06:17:54.781Z,22.59
2017-10-25T06:18:27.037Z,22.55
2017-10-25T06:18:59.066Z,22.61
2017-10-25T06:19:31.153Z,22.66
2017-10-25T06:20:03.274Z,22.61
2017-10-25T06:20:35.419Z,22.63
2017-10-25T06:21:07.429Z,22.59
2017-10-25T06:21:39.614Z,22.59
2017-10-25T06:22:11.783Z,22.61
2017-10-25T06:22:43.897Z,22.61
2017-10-25T06:23:15.896Z,22.64
2017-10-25T06:23:48.032Z,22.67
2017-10-25T06:24:20.209Z,22.66
2017-10-25T06:24:52.474Z,22.61
2017-10-25T06:25:24.662Z,22.63
2017-10-25T06:25:56.804Z,22.67
2017-10-25T06:26:29.011Z,22.61
2017-10-25T06:27:01.105Z,22.6
2017-10-25T06:27:33.307Z,22.59
2017-10-25T06:28:05.352Z,22.55
2017-10-25T06:28:37.476Z,22.63
2017-10-25T06:29:09.680Z,22.63
2017-10-25T06:29:41.847Z,22.61
2017-10-25T06:30:13.924Z,22.6
2017-10-25T06:30:46.235Z,22.57
2017-10-25T06:31:18.325Z,22.63
2017-10-25T06:31:50.401Z,22.63
2017-10-25T06:32:22.453Z,22.61
2017-10-25T06:32:54.657Z,22.73
2017-10-25T06:33:26.702Z,22.59
2017-10-25T06:33:58.919Z,22.59
2017-10-25T06:34:31.112Z,22.57
2017-10-25T06:35:03.217Z,22.64
2017-10-25T06:35:35.554Z,22.67
2017-10-25T06:36:07.834Z,22.67
2017-10-25T06:36:39.961Z,22.63
2017-10-25T06:37:12.056Z,22.67
2017-10-25T06:37:44.244Z,22.73
2017-10-25T06:38:16.485Z,22.71
2017-10-25T06:38:48.680Z,22.75
2017-10-25T06:39:20.923Z,22.69
2017-10-25T06:39:53.069Z,22.67
2017-10-25T06:40:25.221Z,22.67
2017-10-25T06:40:57.290Z,22.71
2017-10-25T06:41:29.432Z,22.66
2017-10-25T06:42:01.520Z,22.76
2017-10-25T06:42:33.652Z,22.71
2017-10-25T06:43:05.799Z,22.69
2017-10-25T06:43:37.879Z,22.69
2017-10-25T06:44:10.076Z,22.71
2017-10-25T06:44:42.300Z,22.73
2017-10-25T06:45:14.480Z,22.69
2017-10-25T06:45:46.588Z,22.7
2017-10-25T06:46:18.752Z,22.71
2017-10-25T06:46:51.093Z,22.7
2017-10-25T06:47:23.213Z,22.79
2017-10-25T06:47:55.447Z,22.7
2017-10-25T06:48:27.449Z,22.75
2017-10-25T06:48:59.876Z,22.79
2017-10-25T06:49:32.022Z,22.71
2017-10-25T06:50:04.104Z,22.73
2017-10-25T06:50:36.259Z,22.82
2017-10-25T06:51:08.383Z,22.81
2017-10-25T06:51:40.574Z,22.84
2017-10-25T06:52:12.748Z,22.78
2017-10-25T06:52:44.820Z,22.81
2017-10-25T06:53:16.922Z,22.73
2017-10-25T06:53:49.134Z,22.82
2017-10-25T06:54:21.212Z,22.81
2017-10-25T06:54:53.415Z,22.76
2017-10-25T06:55:25.609Z,22.86